sensor_id;sensor_type;location;lat;lon;timestamp;pressure;altitude;pressure_sealevel;temperature;humidity
57086;BME280;42964;42.910;23.792;2023-07-13T00:02:13;97754.84;;;21.77;84.68
57086;BME280;42964;42.910;23.792;2023-07-13T00:07:13;97748.88;;;21.74;84.66
57086;BME280;42964;42.910;23.792;2023-07-13T00:12:33;97749.28;;;21.65;85.60
57086;BME280;42964;42.910;23.792;2023-07-13T00:17:33;97726.41;;;21.45;86.56
57086;BME280;42964;42.910;23.792;2023-07-13T00:22:32;97733.47;;;21.44;87.64
57086;BME280;42964;42.910;23.792;2023-07-13T00:27:31;97724.19;;;21.36;87.81
57086;BME280;42964;42.910;23.792;2023-07-13T00:32:30;97733.91;;;21.35;88.19
57086;BME280;42964;42.910;23.792;2023-07-13T00:37:30;97735.25;;;21.25;89.14
57086;BME280;42964;42.910;23.792;2023-07-13T00:42:29;97732.03;;;21.17;89.02
57086;BME280;42964;42.910;23.792;2023-07-13T00:47:28;97698.84;;;20.92;89.01
57086;BME280;42964;42.910;23.792;2023-07-13T00:52:27;97733.38;;;21.06;89.11
57086;BME280;42964;42.910;23.792;2023-07-13T00:57:27;97735.41;;;21.00;89.64
57086;BME280;42964;42.910;23.792;2023-07-13T01:02:26;97709.88;;;21.00;88.28
57086;BME280;42964;42.910;23.792;2023-07-13T01:07:27;97722.47;;;20.93;87.45
57086;BME280;42964;42.910;23.792;2023-07-13T01:12:26;97718.50;;;20.85;86.91
57086;BME280;42964;42.910;23.792;2023-07-13T01:17:25;97704.44;;;20.64;87.54
57086;BME280;42964;42.910;23.792;2023-07-13T01:22:24;97715.19;;;20.80;87.12
57086;BME280;42964;42.910;23.792;2023-07-13T01:27:25;97716.28;;;20.74;88.70
57086;BME280;42964;42.910;23.792;2023-07-13T01:32:24;97728.16;;;20.64;89.18
57086;BME280;42964;42.910;23.792;2023-07-13T01:37:25;97723.78;;;20.42;90.61
57086;BME280;42964;42.910;23.792;2023-07-13T01:42:25;97718.06;;;20.31;90.88
57086;BME280;42964;42.910;23.792;2023-07-13T01:47:24;97723.06;;;20.37;90.14
57086;BME280;42964;42.910;23.792;2023-07-13T01:52:24;97707.38;;;20.34;90.23
57086;BME280;42964;42.910;23.792;2023-07-13T01:57:23;97718.69;;;20.38;89.85
57086;BME280;42964;42.910;23.792;2023-07-13T02:02:22;97708.31;;;20.33;89.35
57086;BME280;42964;42.910;23.792;2023-07-13T02:07:22;97719.72;;;20.34;89.00
57086;BME280;42964;42.910;23.792;2023-07-13T02:12:21;97718.91;;;20.32;88.59
57086;BME280;42964;42.910;23.792;2023-07-13T02:17:20;97712.31;;;20.21;89.14
57086;BME280;42964;42.910;23.792;2023-07-13T02:22:18;97708.09;;;20.17;89.75
57086;BME280;42964;42.910;23.792;2023-07-13T02:27:18;97711.53;;;20.19;89.78
57086;BME280;42964;42.910;23.792;2023-07-13T02:32:17;97722.06;;;20.19;89.56
57086;BME280;42964;42.910;23.792;2023-07-13T02:37:16;97709.97;;;20.14;90.08
57086;BME280;42964;42.910;23.792;2023-07-13T02:42:15;97720.66;;;20.11;90.50
57086;BME280;42964;42.910;23.792;2023-07-13T02:47:14;97726.41;;;19.98;90.95
57086;BME280;42964;42.910;23.792;2023-07-13T02:52:13;97721.13;;;19.98;90.58
57086;BME280;42964;42.910;23.792;2023-07-13T02:57:12;97713.50;;;19.91;90.99
57086;BME280;42964;42.910;23.792;2023-07-13T03:02:11;97718.28;;;19.81;90.69
57086;BME280;42964;42.910;23.792;2023-07-13T03:07:10;97722.03;;;19.75;90.71
57086;BME280;42964;42.910;23.792;2023-07-13T03:12:09;97707.88;;;19.54;91.72
57086;BME280;42964;42.910;23.792;2023-07-13T03:17:08;97730.78;;;19.76;91.13
57086;BME280;42964;42.910;23.792;2023-07-13T03:22:07;97726.28;;;19.79;91.12
57086;BME280;42964;42.910;23.792;2023-07-13T03:27:06;97730.47;;;19.83;90.93
57086;BME280;42964;42.910;23.792;2023-07-13T03:32:05;97737.69;;;19.78;91.01
57086;BME280;42964;42.910;23.792;2023-07-13T03:37:05;97684.84;;;19.61;90.48
57086;BME280;42964;42.910;23.792;2023-07-13T03:42:04;97734.22;;;20.00;89.77
57086;BME280;42964;42.910;23.792;2023-07-13T03:47:03;97744.84;;;19.98;89.56
57086;BME280;42964;42.910;23.792;2023-07-13T03:52:05;97740.78;;;20.12;89.32
57086;BME280;42964;42.910;23.792;2023-07-13T03:57:04;97738.66;;;20.21;88.55
57086;BME280;42964;42.910;23.792;2023-07-13T04:02:03;97729.84;;;20.22;88.84
57086;BME280;42964;42.910;23.792;2023-07-13T04:07:04;97746.22;;;20.31;88.35
57086;BME280;42964;42.910;23.792;2023-07-13T04:12:03;97746.78;;;20.37;88.20
57086;BME280;42964;42.910;23.792;2023-07-13T04:17:02;97735.28;;;20.40;87.88
57086;BME280;42964;42.910;23.792;2023-07-13T04:22:01;97741.72;;;20.55;87.47
57086;BME280;42964;42.910;23.792;2023-07-13T04:27:00;97741.97;;;20.70;87.09
57086;BME280;42964;42.910;23.792;2023-07-13T04:32:00;97745.72;;;20.85;86.19
57086;BME280;42964;42.910;23.792;2023-07-13T04:37:01;97758.03;;;21.05;85.31
57086;BME280;42964;42.910;23.792;2023-07-13T04:42:00;97749.16;;;21.28;84.05
57086;BME280;42964;42.910;23.792;2023-07-13T04:46:59;97747.13;;;21.54;83.09
57086;BME280;42964;42.910;23.792;2023-07-13T04:51:58;97751.06;;;21.83;82.49
57086;BME280;42964;42.910;23.792;2023-07-13T04:56:57;97750.09;;;22.05;81.28
57086;BME280;42964;42.910;23.792;2023-07-13T05:01:56;97756.78;;;22.31;78.99
57086;BME280;42964;42.910;23.792;2023-07-13T05:06:54;97758.00;;;22.24;82.04
57086;BME280;42964;42.910;23.792;2023-07-13T05:11:53;97760.66;;;22.41;82.13
57086;BME280;42964;42.910;23.792;2023-07-13T05:16:52;97745.25;;;22.51;82.84
57086;BME280;42964;42.910;23.792;2023-07-13T05:21:51;97751.94;;;22.58;83.10
57086;BME280;42964;42.910;23.792;2023-07-13T05:26:50;97748.31;;;22.78;82.84
57086;BME280;42964;42.910;23.792;2023-07-13T05:31:50;97752.97;;;23.08;81.62
57086;BME280;42964;42.910;23.792;2023-07-13T05:36:49;97748.78;;;23.37;80.66
57086;BME280;42964;42.910;23.792;2023-07-13T05:41:48;97766.25;;;23.58;80.06
57086;BME280;42964;42.910;23.792;2023-07-13T05:46:47;97751.66;;;23.83;79.26
57086;BME280;42964;42.910;23.792;2023-07-13T05:51:46;97755.25;;;24.14;78.44
57086;BME280;42964;42.910;23.792;2023-07-13T05:56:45;97764.34;;;24.41;76.58
57086;BME280;42964;42.910;23.792;2023-07-13T06:01:44;97767.03;;;24.87;75.09
57086;BME280;42964;42.910;23.792;2023-07-13T06:06:43;97761.22;;;25.25;72.30
57086;BME280;42964;42.910;23.792;2023-07-13T06:11:42;97767.53;;;25.67;70.13
57086;BME280;42964;42.910;23.792;2023-07-13T06:16:41;97752.88;;;26.03;65.35
57086;BME280;42964;42.910;23.792;2023-07-13T06:21:40;97636.34;;;25.68;64.21
57086;BME280;42964;42.910;23.792;2023-07-13T06:26:39;97746.38;;;26.76;61.69
57086;BME280;42964;42.910;23.792;2023-07-13T06:31:38;97760.34;;;27.19;59.71
57086;BME280;42964;42.910;23.792;2023-07-13T06:36:37;97738.72;;;27.50;58.44
57086;BME280;42964;42.910;23.792;2023-07-13T06:41:37;97722.56;;;27.77;58.08
57086;BME280;42964;42.910;23.792;2023-07-13T06:46:37;97752.44;;;28.32;56.53
57086;BME280;42964;42.910;23.792;2023-07-13T06:51:36;97732.56;;;28.60;54.72
57086;BME280;42964;42.910;23.792;2023-07-13T06:56:35;97739.63;;;28.96;54.42
57086;BME280;42964;42.910;23.792;2023-07-13T07:01:34;97733.66;;;29.28;51.84
57086;BME280;42964;42.910;23.792;2023-07-13T07:06:33;97727.09;;;29.43;49.41
57086;BME280;42964;42.910;23.792;2023-07-13T07:11:32;97733.94;;;29.70;50.24
57086;BME280;42964;42.910;23.792;2023-07-13T07:16:31;97741.22;;;29.90;49.02
57086;BME280;42964;42.910;23.792;2023-07-13T07:21:30;97723.94;;;30.06;49.63
57086;BME280;42964;42.910;23.792;2023-07-13T07:26:30;97723.38;;;30.34;49.85
57086;BME280;42964;42.910;23.792;2023-07-13T07:31:29;97664.47;;;30.34;46.79
57086;BME280;42964;42.910;23.792;2023-07-13T07:36:28;97704.97;;;30.85;45.17
57086;BME280;42964;42.910;23.792;2023-07-13T07:41:27;97695.84;;;31.08;43.78
57086;BME280;42964;42.910;23.792;2023-07-13T07:46:26;97695.13;;;31.37;44.25
57086;BME280;42964;42.910;23.792;2023-07-13T07:51:25;97689.03;;;31.56;42.93
57086;BME280;42964;42.910;23.792;2023-07-13T07:56:24;97689.25;;;31.74;42.15
57086;BME280;42964;42.910;23.792;2023-07-13T08:01:23;97678.69;;;31.92;41.35
57086;BME280;42964;42.910;23.792;2023-07-13T08:06:23;97684.00;;;32.13;40.24
57086;BME280;42964;42.910;23.792;2023-07-13T08:11:22;97685.41;;;32.27;40.55
57086;BME280;42964;42.910;23.792;2023-07-13T08:16:22;97681.63;;;32.49;40.24
57086;BME280;42964;42.910;23.792;2023-07-13T08:21:21;97684.47;;;32.67;38.74
57086;BME280;42964;42.910;23.792;2023-07-13T08:26:20;97679.13;;;32.76;36.98
57086;BME280;42964;42.910;23.792;2023-07-13T08:31:20;97675.09;;;32.90;35.13
57086;BME280;42964;42.910;23.792;2023-07-13T08:36:19;97648.41;;;32.79;33.62
57086;BME280;42964;42.910;23.792;2023-07-13T08:41:18;97682.03;;;33.12;34.61
57086;BME280;42964;42.910;23.792;2023-07-13T08:46:23;97681.53;;;33.36;35.32
57086;BME280;42964;42.910;23.792;2023-07-13T08:51:43;97691.53;;;33.44;35.22
57086;BME280;42964;42.910;23.792;2023-07-13T08:56:44;97696.75;;;33.55;36.87
57086;BME280;42964;42.910;23.792;2023-07-13T09:12:43;97718.00;;;33.68;29.70
57086;BME280;42964;42.910;23.792;2023-07-13T09:17:49;97715.19;;;33.87;30.06
57086;BME280;42964;42.910;23.792;2023-07-13T09:22:49;97725.31;;;33.76;28.53
57086;BME280;42964;42.910;23.792;2023-07-13T09:27:53;97719.75;;;34.05;30.22
57086;BME280;42964;42.910;23.792;2023-07-13T09:32:54;97716.31;;;34.22;29.21
57086;BME280;42964;42.910;23.792;2023-07-13T09:38:03;97697.22;;;34.34;29.22
57086;BME280;42964;42.910;23.792;2023-07-13T09:43:03;97698.91;;;34.35;28.69
57086;BME280;42964;42.910;23.792;2023-07-13T09:48:06;97673.28;;;34.30;28.35
57086;BME280;42964;42.910;23.792;2023-07-13T09:53:17;97687.44;;;34.50;28.04
57086;BME280;42964;42.910;23.792;2023-07-13T09:58:19;97690.38;;;34.39;27.38
57086;BME280;42964;42.910;23.792;2023-07-13T10:03:21;97684.38;;;34.63;27.99
57086;BME280;42964;42.910;23.792;2023-07-13T10:08:27;97676.28;;;34.81;28.07
57086;BME280;42964;42.910;23.792;2023-07-13T10:13:32;97669.63;;;34.93;27.68
57086;BME280;42964;42.910;23.792;2023-07-13T10:18:39;97676.78;;;35.03;27.41
57086;BME280;42964;42.910;23.792;2023-07-13T10:23:41;97679.59;;;35.19;27.90
57086;BME280;42964;42.910;23.792;2023-07-13T10:28:42;97656.09;;;35.29;27.58
57086;BME280;42964;42.910;23.792;2023-07-13T10:33:44;97660.00;;;35.43;26.52
57086;BME280;42964;42.910;23.792;2023-07-13T10:38:43;97646.81;;;35.66;26.13
57086;BME280;42964;42.910;23.792;2023-07-13T10:43:51;97636.44;;;35.88;27.64
57086;BME280;42964;42.910;23.792;2023-07-13T10:48:59;97627.50;;;35.95;26.28
57086;BME280;42964;42.910;23.792;2023-07-13T10:54:34;97625.03;;;36.10;25.93
57086;BME280;42964;42.910;23.792;2023-07-13T10:59:33;97621.69;;;36.16;26.33
57086;BME280;42964;42.910;23.792;2023-07-13T11:04:47;97624.06;;;36.28;24.98
57086;BME280;42964;42.910;23.792;2023-07-13T11:09:50;97620.19;;;36.47;25.91
57086;BME280;42964;42.910;23.792;2023-07-13T11:35:27;97612.53;;;36.99;26.46
57086;BME280;42964;42.910;23.792;2023-07-13T11:40:27;97603.41;;;37.17;26.25
57086;BME280;42964;42.910;23.792;2023-07-13T11:45:28;97589.28;;;37.38;26.16
57086;BME280;42964;42.910;23.792;2023-07-13T11:50:27;97577.91;;;37.51;25.16
57086;BME280;42964;42.910;23.792;2023-07-13T11:55:28;97558.88;;;37.67;25.88
57086;BME280;42964;42.910;23.792;2023-07-13T12:00:29;97563.34;;;37.83;25.94
57086;BME280;42964;42.910;23.792;2023-07-13T12:05:30;97552.81;;;37.96;26.04
57086;BME280;42964;42.910;23.792;2023-07-13T12:10:30;97548.16;;;38.05;27.32
57086;BME280;42964;42.910;23.792;2023-07-13T12:15:40;97537.94;;;38.15;25.45
57086;BME280;42964;42.910;23.792;2023-07-13T12:20:40;97537.41;;;38.35;25.82
57086;BME280;42964;42.910;23.792;2023-07-13T12:25:39;97524.78;;;38.50;25.00
57086;BME280;42964;42.910;23.792;2023-07-13T12:30:38;97518.31;;;38.66;26.86
57086;BME280;42964;42.910;23.792;2023-07-13T12:35:48;97497.28;;;38.53;23.99
57086;BME280;42964;42.910;23.792;2023-07-13T12:40:52;97509.94;;;38.91;25.98
57086;BME280;42964;42.910;23.792;2023-07-13T12:45:59;97503.31;;;38.93;22.49
57086;BME280;42964;42.910;23.792;2023-07-13T12:51:01;97502.25;;;38.94;22.84
57086;BME280;42964;42.910;23.792;2023-07-13T12:56:02;97506.78;;;39.02;23.81
57086;BME280;42964;42.910;23.792;2023-07-13T13:01:02;97487.94;;;39.00;22.71
57086;BME280;42964;42.910;23.792;2023-07-13T13:11:19;97496.53;;;39.34;21.21
57086;BME280;42964;42.910;23.792;2023-07-13T13:21:20;97499.22;;;39.48;20.90
57086;BME280;42964;42.910;23.792;2023-07-13T13:26:21;97499.06;;;39.35;21.81
57086;BME280;42964;42.910;23.792;2023-07-13T13:31:21;97499.75;;;39.59;23.42
57086;BME280;42964;42.910;23.792;2023-07-13T13:36:22;97499.56;;;39.60;21.68
57086;BME280;42964;42.910;23.792;2023-07-13T13:41:21;97484.38;;;39.66;21.67
57086;BME280;42964;42.910;23.792;2023-07-13T13:46:24;97479.34;;;39.48;21.86
57086;BME280;42964;42.910;23.792;2023-07-13T13:51:28;97466.91;;;39.54;22.75
57086;BME280;42964;42.910;23.792;2023-07-13T13:56:28;97466.50;;;39.57;21.45
57086;BME280;42964;42.910;23.792;2023-07-13T14:01:27;97473.31;;;39.67;22.92
57086;BME280;42964;42.910;23.792;2023-07-13T14:06:27;97469.72;;;39.82;21.46
57086;BME280;42964;42.910;23.792;2023-07-13T14:11:27;97461.41;;;39.90;22.09
57086;BME280;42964;42.910;23.792;2023-07-13T14:16:30;97449.22;;;39.79;21.11
57086;BME280;42964;42.910;23.792;2023-07-13T14:21:30;97457.50;;;39.71;22.58
57086;BME280;42964;42.910;23.792;2023-07-13T14:26:35;97455.63;;;39.20;22.39
57086;BME280;42964;42.910;23.792;2023-07-13T14:31:35;97454.84;;;38.90;22.92
57086;BME280;42964;42.910;23.792;2023-07-13T14:36:40;97446.59;;;38.98;23.15
57086;BME280;42964;42.910;23.792;2023-07-13T14:41:40;97445.53;;;39.29;22.98
57086;BME280;42964;42.910;23.792;2023-07-13T14:46:39;97437.06;;;39.39;23.62
57086;BME280;42964;42.910;23.792;2023-07-13T14:51:38;97437.41;;;39.50;23.20
57086;BME280;42964;42.910;23.792;2023-07-13T14:56:37;97394.50;;;39.39;24.16
57086;BME280;42964;42.910;23.792;2023-07-13T15:01:37;97430.97;;;39.73;24.80
57086;BME280;42964;42.910;23.792;2023-07-13T15:06:57;97438.72;;;39.76;26.02
57086;BME280;42964;42.910;23.792;2023-07-13T15:11:58;97434.53;;;39.74;26.18
57086;BME280;42964;42.910;23.792;2023-07-13T15:16:57;97436.88;;;39.77;27.33
57086;BME280;42964;42.910;23.792;2023-07-13T15:21:57;97418.53;;;39.42;26.71
57086;BME280;42964;42.910;23.792;2023-07-13T15:26:56;97446.34;;;39.44;28.45
57086;BME280;42964;42.910;23.792;2023-07-13T15:31:55;97445.16;;;39.32;29.35
57086;BME280;42964;42.910;23.792;2023-07-13T15:36:54;97443.09;;;39.19;30.97
57086;BME280;42964;42.910;23.792;2023-07-13T15:41:53;97436.66;;;39.05;31.92
57086;BME280;42964;42.910;23.792;2023-07-13T15:46:53;97435.47;;;38.78;32.13
57086;BME280;42964;42.910;23.792;2023-07-13T15:51:52;97425.38;;;38.42;32.82
57086;BME280;42964;42.910;23.792;2023-07-13T15:56:54;97425.31;;;38.13;33.42
57086;BME280;42964;42.910;23.792;2023-07-13T16:01:54;97417.53;;;37.95;33.87
57086;BME280;42964;42.910;23.792;2023-07-13T16:06:53;97426.13;;;37.75;34.36
57086;BME280;42964;42.910;23.792;2023-07-13T16:11:52;97273.38;;;36.54;35.10
57086;BME280;42964;42.910;23.792;2023-07-13T16:16:53;97427.09;;;37.28;35.14
57086;BME280;42964;42.910;23.792;2023-07-13T16:21:54;97425.91;;;37.08;35.74
57086;BME280;42964;42.910;23.792;2023-07-13T16:26:53;97434.28;;;36.82;36.10
57086;BME280;42964;42.910;23.792;2023-07-13T16:31:56;97421.88;;;36.56;35.98
57086;BME280;42964;42.910;23.792;2023-07-13T16:36:56;97395.38;;;36.27;36.77
57086;BME280;42964;42.910;23.792;2023-07-13T16:41:57;97420.41;;;36.21;37.03
57086;BME280;42964;42.910;23.792;2023-07-13T16:46:56;97420.75;;;35.93;37.80
57086;BME280;42964;42.910;23.792;2023-07-13T16:51:59;97420.06;;;35.66;38.33
57086;BME280;42964;42.910;23.792;2023-07-13T16:57:06;97433.53;;;35.42;37.79
57086;BME280;42964;42.910;23.792;2023-07-13T17:02:35;97434.47;;;35.16;38.77
57086;BME280;42964;42.910;23.792;2023-07-13T17:07:35;97430.81;;;34.91;39.42
57086;BME280;42964;42.910;23.792;2023-07-13T17:12:34;97437.91;;;34.58;39.38
57086;BME280;42964;42.910;23.792;2023-07-13T17:17:34;97441.13;;;34.35;39.45
57086;BME280;42964;42.910;23.792;2023-07-13T17:22:35;97431.81;;;34.03;39.85
57086;BME280;42964;42.910;23.792;2023-07-13T17:27:34;97434.22;;;33.53;41.28
57086;BME280;42964;42.910;23.792;2023-07-13T17:32:33;97431.16;;;33.12;43.10
57086;BME280;42964;42.910;23.792;2023-07-13T17:37:32;97432.34;;;32.90;43.42
57086;BME280;42964;42.910;23.792;2023-07-13T17:42:31;97435.88;;;32.53;44.56
57086;BME280;42964;42.910;23.792;2023-07-13T17:47:30;97443.78;;;32.17;43.46
57086;BME280;42964;42.910;23.792;2023-07-13T17:52:30;97443.81;;;31.88;44.41
57086;BME280;42964;42.910;23.792;2023-07-13T17:57:29;97449.19;;;31.58;44.73
57086;BME280;42964;42.910;23.792;2023-07-13T18:02:29;97446.16;;;31.23;46.47
57086;BME280;42964;42.910;23.792;2023-07-13T18:07:30;97461.69;;;30.79;47.95
57086;BME280;42964;42.910;23.792;2023-07-13T18:12:29;97470.16;;;30.53;48.87
57086;BME280;42964;42.910;23.792;2023-07-13T18:17:28;97477.63;;;30.28;49.25
57086;BME280;42964;42.910;23.792;2023-07-13T18:22:27;97450.34;;;29.92;48.56
57086;BME280;42964;42.910;23.792;2023-07-13T18:27:26;97472.03;;;29.78;49.31
57086;BME280;42964;42.910;23.792;2023-07-13T18:32:25;97492.50;;;29.68;49.12
57086;BME280;42964;42.910;23.792;2023-07-13T18:37:26;97509.50;;;29.35;49.52
57086;BME280;42964;42.910;23.792;2023-07-13T18:42:26;97508.16;;;29.18;51.52
57086;BME280;42964;42.910;23.792;2023-07-13T18:47:25;97528.72;;;28.95;53.65
57086;BME280;42964;42.910;23.792;2023-07-13T18:52:28;97541.47;;;28.80;54.73
57086;BME280;42964;42.910;23.792;2023-07-13T18:57:26;97539.00;;;28.65;55.90
57086;BME280;42964;42.910;23.792;2023-07-13T19:02:26;97537.88;;;28.45;58.00
57086;BME280;42964;42.910;23.792;2023-07-13T19:07:25;97537.81;;;28.23;57.56
57086;BME280;42964;42.910;23.792;2023-07-13T19:12:25;97538.03;;;28.09;56.20
57086;BME280;42964;42.910;23.792;2023-07-13T19:17:26;97538.31;;;27.93;56.12
57086;BME280;42964;42.910;23.792;2023-07-13T19:22:25;97541.25;;;27.77;56.36
57086;BME280;42964;42.910;23.792;2023-07-13T19:27:25;97535.03;;;27.65;56.60
57086;BME280;42964;42.910;23.792;2023-07-13T19:32:24;97539.03;;;27.47;56.94
57086;BME280;42964;42.910;23.792;2023-07-13T19:37:24;97556.47;;;27.27;57.85
57086;BME280;42964;42.910;23.792;2023-07-13T19:42:24;97557.50;;;26.87;62.01
57086;BME280;42964;42.910;23.792;2023-07-13T19:47:24;97565.34;;;26.76;61.28
57086;BME280;42964;42.910;23.792;2023-07-13T19:52:27;97564.69;;;26.60;60.32
57086;BME280;42964;42.910;23.792;2023-07-13T19:57:28;97556.94;;;26.56;59.91
57086;BME280;42964;42.910;23.792;2023-07-13T20:02:27;97553.19;;;26.46;59.90
57086;BME280;42964;42.910;23.792;2023-07-13T20:07:26;97563.75;;;26.48;61.39
57086;BME280;42964;42.910;23.792;2023-07-13T20:12:25;97566.59;;;26.32;61.43
57086;BME280;42964;42.910;23.792;2023-07-13T20:17:38;97575.06;;;26.11;63.06
57086;BME280;42964;42.910;23.792;2023-07-13T20:22:39;97568.63;;;26.01;62.81
57086;BME280;42964;42.910;23.792;2023-07-13T20:27:38;97563.97;;;25.78;64.01
57086;BME280;42964;42.910;23.792;2023-07-13T20:32:38;97562.13;;;25.65;65.50
57086;BME280;42964;42.910;23.792;2023-07-13T20:37:38;97572.41;;;25.57;66.04
57086;BME280;42964;42.910;23.792;2023-07-13T20:42:37;97577.34;;;25.49;67.84
57086;BME280;42964;42.910;23.792;2023-07-13T20:47:36;97571.22;;;25.34;68.98
57086;BME280;42964;42.910;23.792;2023-07-13T20:52:36;97553.50;;;25.20;69.23
57086;BME280;42964;42.910;23.792;2023-07-13T20:57:35;97553.88;;;25.14;71.05
57086;BME280;42964;42.910;23.792;2023-07-13T21:02:35;97551.72;;;25.06;70.84
57086;BME280;42964;42.910;23.792;2023-07-13T21:07:34;97552.19;;;24.99;71.87
57086;BME280;42964;42.910;23.792;2023-07-13T21:12:33;97546.97;;;24.83;73.96
57086;BME280;42964;42.910;23.792;2023-07-13T21:17:32;97562.41;;;24.76;75.06
57086;BME280;42964;42.910;23.792;2023-07-13T21:22:32;97561.38;;;24.64;75.75
57086;BME280;42964;42.910;23.792;2023-07-13T21:27:31;97553.88;;;24.57;75.01
57086;BME280;42964;42.910;23.792;2023-07-13T21:32:30;97557.81;;;24.49;74.82
57086;BME280;42964;42.910;23.792;2023-07-13T21:37:29;97557.66;;;24.38;75.12
57086;BME280;42964;42.910;23.792;2023-07-13T21:42:28;97549.75;;;24.22;75.75
57086;BME280;42964;42.910;23.792;2023-07-13T21:47:27;97554.59;;;24.30;74.39
57086;BME280;42964;42.910;23.792;2023-07-13T21:52:26;97556.47;;;24.28;75.74
57086;BME280;42964;42.910;23.792;2023-07-13T21:57:25;97539.25;;;24.05;76.98
57086;BME280;42964;42.910;23.792;2023-07-13T22:02:27;97533.84;;;24.06;77.65
57086;BME280;42964;42.910;23.792;2023-07-13T22:07:26;97537.63;;;24.02;77.86
57086;BME280;42964;42.910;23.792;2023-07-13T22:12:25;97521.34;;;23.94;77.27
57086;BME280;42964;42.910;23.792;2023-07-13T22:17:24;97516.50;;;23.87;76.38
57086;BME280;42964;42.910;23.792;2023-07-13T22:22:23;97486.03;;;23.63;76.35
57086;BME280;42964;42.910;23.792;2023-07-13T22:27:22;97495.28;;;23.56;77.75
57086;BME280;42964;42.910;23.792;2023-07-13T22:32:22;97498.69;;;23.58;78.00
57086;BME280;42964;42.910;23.792;2023-07-13T22:37:21;97499.03;;;23.52;78.99
57086;BME280;42964;42.910;23.792;2023-07-13T22:42:20;97485.22;;;23.47;78.89
57086;BME280;42964;42.910;23.792;2023-07-13T22:47:19;97493.22;;;23.30;79.47
57086;BME280;42964;42.910;23.792;2023-07-13T22:52:19;97497.84;;;23.10;81.17
57086;BME280;42964;42.910;23.792;2023-07-13T22:57:18;97468.47;;;22.99;80.53
57086;BME280;42964;42.910;23.792;2023-07-13T23:02:19;97483.34;;;23.01;80.30
57086;BME280;42964;42.910;23.792;2023-07-13T23:07:18;97489.66;;;22.99;79.54
57086;BME280;42964;42.910;23.792;2023-07-13T23:12:20;97489.56;;;23.00;78.76
57086;BME280;42964;42.910;23.792;2023-07-13T23:17:19;97481.47;;;23.04;78.03
57086;BME280;42964;42.910;23.792;2023-07-13T23:22:26;97436.97;;;22.78;78.52
57086;BME280;42964;42.910;23.792;2023-07-13T23:27:25;97445.69;;;22.80;79.33
57086;BME280;42964;42.910;23.792;2023-07-13T23:32:24;97466.06;;;22.78;80.47
57086;BME280;42964;42.910;23.792;2023-07-13T23:37:24;97464.69;;;22.71;80.49
57086;BME280;42964;42.910;23.792;2023-07-13T23:42:26;97453.03;;;22.75;80.61
57086;BME280;42964;42.910;23.792;2023-07-13T23:47:25;97444.38;;;22.56;81.46
57086;BME280;42964;42.910;23.792;2023-07-13T23:52:24;97434.88;;;22.52;81.73
57086;BME280;42964;42.910;23.792;2023-07-13T23:57:23;97440.34;;;22.49;82.03
